Time;durP1;ratioP1;P1;durP2;ratioP2;P2;SDS_P1;SDS_P2;PMS_P1;PMS_P2;Temp;Humidity;BMP_temperature;BMP_pressure;BME280_temperature;BME280_humidity;BME280_pressure;Samples;Min_cycle;Max_cycle;Signal;HPM_P1;HPM_P2
2022/05/06 00:00:21;;;;;;;19.73;13.10;;;10.50;99.90;;;;;;5052657;28;20111;-72
2022/05/06 00:02:47;;;;;;;201.45;19.55;;;10.50;99.90;;;;;;5050074;28;20136;-71
2022/05/06 00:05:13;;;;;;;74.00;15.13;;;10.50;99.90;;;;;;5049632;28;20123;-73
2022/05/06 00:07:39;;;;;;;38.97;12.87;;;10.40;99.90;;;;;;5052438;28;20313;-72
2022/05/06 00:10:06;;;;;;;21.95;13.60;;;10.40;99.90;;;;;;5033023;28;20477;-72
2022/05/06 00:12:32;;;;;;;25.13;16.30;;;10.40;99.90;;;;;;5052287;28;20051;-72
2022/05/06 00:14:58;;;;;;;28.80;18.38;;;10.30;99.90;;;;;;5052060;28;20461;-73
2022/05/06 00:17:24;;;;;;;22.90;14.00;;;10.30;99.90;;;;;;5051156;28;20084;-72
2022/05/06 00:19:50;;;;;;;;;;;10.30;99.90;;;;;;5069313;28;20484;-73
2022/05/06 00:22:16;;;;;;;21.15;12.85;;;10.20;99.90;;;;;;5048759;28;20033;-72
2022/05/06 00:24:41;;;;;;;36.25;14.50;;;10.20;99.90;;;;;;5051734;28;20079;-72
2022/05/06 00:27:08;;;;;;;84.07;16.37;;;10.20;99.90;;;;;;5049165;28;20036;-72
2022/05/06 00:29:33;;;;;;;80.50;16.60;;;10.10;99.90;;;;;;5048773;28;20066;-72
2022/05/06 00:32:00;;;;;;;156.75;19.55;;;10.10;99.90;;;;;;5048478;28;20097;-72
2022/05/06 00:34:27;;;;;;;215.63;19.65;;;10.10;99.90;;;;;;5051888;28;20053;-72
2022/05/06 00:36:55;;;;;;;155.68;15.02;;;10.10;99.90;;;;;;5051123;28;20041;-73
2022/05/06 00:39:21;;;;;;;135.95;15.10;;;10.00;99.90;;;;;;5052253;28;20033;-73
2022/05/06 00:41:46;;;;;;;156.55;16.83;;;10.00;99.90;;;;;;5052235;28;20471;-72
2022/05/06 00:44:12;;;;;;;27.10;12.03;;;10.00;99.90;;;;;;5052112;28;20041;-73
2022/05/06 00:46:38;;;;;;;32.60;12.68;;;10.00;99.90;;;;;;5069505;28;20037;-72
2022/05/06 00:49:11;;;;;;;19.65;12.73;;;9.90;99.90;;;;;;5052539;28;20514;-72
2022/05/06 00:51:39;;;;;;;21.30;13.43;;;10.00;99.90;;;;;;5035212;28;20040;-72
2022/05/06 00:54:06;;;;;;;37.15;12.32;;;10.00;99.90;;;;;;5046073;28;20045;-72
2022/05/06 00:56:32;;;;;;;50.33;11.82;;;10.00;99.90;;;;;;5048438;28;20041;-71
2022/05/06 00:58:57;;;;;;;50.72;11.45;;;9.90;99.90;;;;;;5051066;28;20107;-72
2022/05/06 01:01:23;;;;;;;69.10;13.00;;;9.90;99.90;;;;;;5043458;28;20132;-73
2022/05/06 01:03:49;;;;;;;85.82;14.20;;;9.90;99.90;;;;;;5035303;28;20054;-72
2022/05/06 01:06:15;;;;;;;28.15;13.10;;;9.80;99.90;;;;;;5051656;28;20046;-72
2022/05/06 01:08:42;;;;;;;37.28;13.55;;;9.80;99.90;;;;;;5051753;28;20043;-73
2022/05/06 01:11:11;;;;;;;59.97;15.57;;;9.80;99.90;;;;;;5048600;28;20059;-72
2022/05/06 01:13:45;;;;;;;37.60;13.63;;;9.80;99.90;;;;;;5048084;28;20370;-73
2022/05/06 01:16:12;;;;;;;149.23;17.77;;;9.80;99.90;;;;;;5047210;28;20067;-71
2022/05/06 01:18:39;;;;;;;23.85;12.70;;;9.70;99.90;;;;;;5046962;28;20407;-72
2022/05/06 01:21:06;;;;;;;15.98;11.10;;;9.80;99.90;;;;;;5051783;28;20044;-72
2022/05/06 01:23:32;;;;;;;166.90;15.20;;;9.70;99.90;;;;;;5051344;28;20043;-71
2022/05/06 01:25:58;;;;;;;137.60;14.23;;;9.70;99.90;;;;;;5049155;28;20056;-73
2022/05/06 01:28:26;;;;;;;355.83;19.55;;;9.50;99.90;;;;;;5046045;28;20118;-73
2022/05/06 01:31:01;;;;;;;179.52;16.27;;;9.50;99.90;;;;;;5048494;28;20514;-72
2022/05/06 01:33:28;;;;;;;244.10;19.38;;;9.40;99.90;;;;;;5048247;28;20076;-72
2022/05/06 01:36:03;;;;;;;252.00;19.88;;;9.20;99.90;;;;;;5068209;28;20044;-73
2022/05/06 01:38:44;;;;;;;111.60;16.23;;;9.10;99.90;;;;;;5051139;28;20041;-72
2022/05/06 01:41:15;;;;;;;46.45;14.98;;;9.10;99.90;;;;;;5052206;28;20041;-72
2022/05/06 01:43:45;;;;;;;20.15;11.75;;;9.00;99.90;;;;;;5054965;28;20037;-72
2022/05/06 01:46:13;;;;;;;22.83;11.23;;;9.00;99.90;;;;;;5043481;28;20041;-72
2022/05/06 01:48:41;;;;;;;16.08;10.68;;;9.00;99.90;;;;;;5072916;28;20056;-72
2022/05/06 01:51:09;;;;;;;14.10;10.80;;;9.00;99.90;;;;;;5046078;28;20052;-72
2022/05/06 01:53:35;;;;;;;20.33;12.00;;;8.90;99.90;;;;;;5072918;28;20184;-72
2022/05/06 01:56:02;;;;;;;19.08;13.02;;;8.90;99.90;;;;;;5050896;28;20064;-73
2022/05/06 01:58:28;;;;;;;23.45;12.57;;;9.00;99.90;;;;;;5047286;28;20055;-72
2022/05/06 02:00:54;;;;;;;20.52;13.55;;;9.00;99.90;;;;;;5052382;28;20056;-71
2022/05/06 02:06:04;;;;;;;19.25;11.82;;;9.00;99.90;;;;;;5065664;28;20052;-71
2022/05/06 02:08:29;;;;;;;54.33;16.23;;;9.00;99.90;;;;;;5046599;28;20372;-73
2022/05/06 02:10:55;;;;;;;81.77;17.17;;;9.00;99.90;;;;;;5048221;28;20049;-72
2022/05/06 02:13:21;;;;;;;45.97;16.83;;;9.00;99.90;;;;;;5028193;28;20283;-73
2022/05/06 02:15:46;;;;;;;46.55;16.67;;;9.00;99.90;;;;;;5044423;28;20136;-71
2022/05/06 02:18:12;;;;;;;97.95;18.80;;;9.00;99.90;;;;;;5072110;28;20060;-72
2022/05/06 02:20:38;;;;;;;53.53;18.90;;;9.00;99.90;;;;;;5054115;28;20036;-72
2022/05/06 02:23:03;;;;;;;28.75;16.90;;;9.00;99.90;;;;;;5069244;28;20551;-71
2022/05/06 02:25:29;;;;;;;31.98;15.98;;;9.00;99.90;;;;;;5041097;28;20123;-72
2022/05/06 02:27:55;;;;;;;106.07;16.98;;;9.00;99.90;;;;;;5054364;28;20098;-72
2022/05/06 02:33:15;;;;;;;53.72;14.68;;;9.00;99.90;;;;;;5039919;28;20301;-73
2022/05/06 02:35:42;;;;;;;28.23;13.05;;;8.90;99.90;;;;;;5050803;28;20099;-72
2022/05/06 02:38:09;;;;;;;55.35;13.52;;;8.80;99.90;;;;;;5041427;28;20041;-72
2022/05/06 02:40:36;;;;;;;28.92;12.38;;;8.80;99.90;;;;;;5050377;28;20051;-71
2022/05/06 02:43:03;;;;;;;186.35;19.73;;;8.80;99.90;;;;;;5037666;28;20119;-72
2022/05/06 02:45:29;;;;;;;409.35;30.00;;;8.70;99.90;;;;;;5037591;28;20043;-73
2022/05/06 02:47:56;;;;;;;167.13;18.95;;;8.70;99.90;;;;;;5062420;28;20108;-72
2022/05/06 02:50:21;;;;;;;200.48;20.35;;;8.70;99.90;;;;;;5050830;28;20049;-72
2022/05/06 02:52:47;;;;;;;21.10;15.13;;;8.60;99.90;;;;;;5049142;28;20429;-72
2022/05/06 02:55:13;;;;;;;137.93;16.55;;;8.50;99.90;;;;;;5054210;28;20032;-73
2022/05/06 02:57:38;;;;;;;89.32;13.13;;;8.60;99.90;;;;;;5053642;28;20040;-72
2022/05/06 03:00:06;;;;;;;52.53;10.80;;;8.30;99.90;;;;;;5051968;28;20102;-72
2022/05/06 03:02:32;;;;;;;187.13;16.25;;;8.30;99.90;;;;;;5053896;28;20274;-72
2022/05/06 03:04:58;;;;;;;250.93;18.67;;;8.20;99.90;;;;;;5036820;28;20166;-72
2022/05/06 03:07:23;;;;;;;150.50;15.63;;;8.20;99.90;;;;;;5053958;28;20040;-72
2022/05/06 03:09:49;;;;;;;78.57;14.48;;;8.10;99.90;;;;;;5053274;28;20282;-72
2022/05/06 03:12:29;;;;;;;219.93;18.15;;;8.00;99.90;;;;;;5053742;28;20389;-72
2022/05/06 03:14:55;;;;;;;220.50;21.65;;;8.00;99.90;;;;;;5053585;28;20468;-73
2022/05/06 03:17:21;;;;;;;71.82;16.83;;;8.00;99.90;;;;;;5050362;28;20032;-73
2022/05/06 03:19:47;;;;;;;52.17;16.50;;;8.00;99.90;;;;;;5049871;28;20044;-73
2022/05/06 03:22:16;;;;;;;27.33;15.10;;;8.10;99.90;;;;;;5033853;28;20052;-72
2022/05/06 03:24:42;;;;;;;67.18;18.65;;;8.20;99.90;;;;;;5049989;28;20109;-72
2022/05/06 03:29:52;;;;;;;92.05;22.23;;;8.40;99.90;;;;;;5052997;28;20368;-72
2022/05/06 03:32:19;;;;;;;92.93;25.50;;;8.50;99.90;;;;;;5053164;28;20040;-73
2022/05/06 03:34:44;;;;;;;384.67;40.95;;;8.60;99.90;;;;;;5052899;28;20055;-73
2022/05/06 03:37:10;;;;;;;257.85;32.47;;;8.70;99.90;;;;;;5036711;28;20041;-72
2022/05/06 03:39:36;;;;;;;282.40;29.45;;;8.80;99.90;;;;;;5036653;28;20186;-72
2022/05/06 03:42:02;;;;;;;226.50;29.50;;;8.80;99.90;;;;;;5052631;28;20051;-72
2022/05/06 03:44:27;;;;;;;393.55;35.50;;;8.80;99.90;;;;;;5050276;28;20048;-72
2022/05/06 03:46:53;;;;;;;344.20;36.75;;;8.90;99.90;;;;;;5052564;28;20041;-72
2022/05/06 03:49:19;;;;;;;506.20;47.80;;;8.90;99.90;;;;;;5049928;28;20170;-72
2022/05/06 03:51:46;;;;;;;447.43;45.23;;;9.00;99.90;;;;;;5041957;28;20297;-73
2022/05/06 03:54:11;;;;;;;610.30;55.13;;;9.00;99.90;;;;;;5036458;28;20037;-72
2022/05/06 03:56:37;;;;;;;609.13;65.80;;;9.00;99.90;;;;;;5052030;28;20090;-73
2022/05/06 03:59:03;;;;;;;673.63;60.83;;;9.10;99.90;;;;;;5048961;28;20551;-72
2022/05/06 04:01:28;;;;;;;653.63;60.87;;;9.00;99.90;;;;;;5048327;28;20036;-72
2022/05/06 04:03:54;;;;;;;634.17;60.67;;;8.90;99.90;;;;;;5032148;28;20707;-72
2022/05/06 04:06:20;;;;;;;777.42;74.25;;;9.00;99.90;;;;;;5052877;28;20102;-73
2022/05/06 04:08:46;;;;;;;616.42;57.00;;;9.00;99.90;;;;;;5051762;28;20044;-73
2022/05/06 04:11:13;;;;;;;649.50;62.65;;;9.00;99.90;;;;;;5052115;28;20040;-73
2022/05/06 04:13:39;;;;;;;473.10;49.45;;;9.10;99.90;;;;;;5052797;28;20079;-72
2022/05/06 04:16:05;;;;;;;372.05;43.63;;;9.10;99.90;;;;;;5052350;28;20032;-72
2022/05/06 04:18:31;;;;;;;449.63;44.78;;;9.10;99.90;;;;;;5033517;28;20040;-72
2022/05/06 04:23:40;;;;;;;434.63;43.38;;;9.10;99.90;;;;;;5051406;28;20055;-72
2022/05/06 04:26:10;;;;;;;369.02;38.00;;;9.10;99.90;;;;;;5049805;28;20048;-73
2022/05/06 04:28:36;;;;;;;369.38;43.22;;;9.10;99.90;;;;;;5052238;28;20149;-72
2022/05/06 04:31:03;;;;;;;362.65;40.78;;;9.10;99.90;;;;;;5051696;28;20075;-72
2022/05/06 04:33:29;;;;;;;;;;;9.10;99.90;;;;;;5033022;28;20056;-73
2022/05/06 04:35:56;;;;;;;350.40;37.35;;;9.20;99.90;;;;;;5065628;28;20376;-73
2022/05/06 04:38:22;;;;;;;335.95;34.78;;;9.20;99.90;;;;;;5046618;28;20073;-73
2022/05/06 04:40:49;;;;;;;186.15;30.02;;;9.20;99.90;;;;;;5038693;28;20040;-73
2022/05/06 04:43:18;;;;;;;461.95;41.97;;;9.20;99.90;;;;;;5048925;28;20045;-73
2022/05/06 04:45:44;;;;;;;420.70;44.47;;;9.20;99.90;;;;;;5046711;28;20053;-74
2022/05/06 04:48:11;;;;;;;419.08;40.08;;;9.30;99.90;;;;;;5032379;28;20049;-74
2022/05/06 04:50:38;;;;;;;375.50;38.70;;;9.30;99.90;;;;;;5028806;28;20056;-75
2022/05/06 04:53:08;;;;;;;288.58;34.10;;;9.30;99.90;;;;;;5024023;28;20067;-72
2022/05/06 04:55:38;;;;;;;280.90;32.45;;;9.30;99.90;;;;;;5033130;28;20041;-73
2022/05/06 04:58:04;;;;;;;324.23;39.22;;;9.30;99.90;;;;;;5041034;28;20080;-73
2022/05/06 05:00:31;;;;;;;307.85;39.63;;;9.30;99.90;;;;;;5033970;28;20037;-73
2022/05/06 05:03:00;;;;;;;;;;;9.50;99.90;;;;;;5042278;28;20172;-72
2022/05/06 05:05:26;;;;;;;277.40;36.35;;;9.40;99.90;;;;;;5039344;28;19984;-74
2022/05/06 05:07:55;;;;;;;225.90;32.20;;;9.50;99.90;;;;;;5038597;28;20040;-72
2022/05/06 05:10:22;;;;;;;368.50;42.85;;;9.40;99.90;;;;;;5038756;28;20033;-73
2022/05/06 05:12:48;;;;;;;234.20;34.15;;;9.50;99.90;;;;;;5043721;28;20041;-74
2022/05/06 05:15:17;;;;;;;436.67;47.92;;;9.50;99.90;;;;;;5050252;28;20139;-73
2022/05/06 05:17:43;;;;;;;309.27;36.15;;;9.60;99.90;;;;;;5052725;28;20051;-73
2022/05/06 05:20:10;;;;;;;226.68;35.33;;;9.60;99.90;;;;;;5051033;28;20400;-74
2022/05/06 05:22:36;;;;;;;;;;;9.60;99.90;;;;;;5034497;28;20041;-73
2022/05/06 05:25:03;;;;;;;230.43;35.85;;;9.60;99.90;;;;;;5034724;28;20615;-74
2022/05/06 05:27:30;;;;;;;89.47;27.95;;;9.70;99.90;;;;;;5035513;28;20045;-73
2022/05/06 05:29:56;;;;;;;188.02;35.13;;;9.60;99.90;;;;;;5049473;28;20072;-73
2022/05/06 05:32:22;;;;;;;237.20;35.72;;;9.70;99.90;;;;;;5046116;28;20037;-72
2022/05/06 05:34:48;;;;;;;303.55;37.30;;;9.70;99.90;;;;;;5053385;28;20122;-74
2022/05/06 05:37:14;;;;;;;142.77;32.50;;;9.70;99.90;;;;;;5051539;28;20409;-72
2022/05/06 05:39:39;;;;;;;223.70;35.88;;;9.80;99.90;;;;;;5051672;28;20460;-74
2022/05/06 05:42:06;;;;;;;150.03;34.40;;;9.90;99.90;;;;;;5051518;28;20133;-73
2022/05/06 05:50:03;;;;;;;94.30;31.67;;;10.00;99.90;;;;;;5047641;28;20043;-73
2022/05/06 05:52:28;;;;;;;118.53;32.17;;;10.00;99.90;;;;;;5038607;28;20051;-73
2022/05/06 05:54:54;;;;;;;97.03;31.03;;;10.00;99.90;;;;;;5040937;28;20033;-73
2022/05/06 05:57:20;;;;;;;143.35;30.70;;;10.00;99.90;;;;;;5055765;28;20286;-73
2022/05/06 05:59:47;;;;;;;151.20;33.43;;;10.00;99.90;;;;;;5053179;28;20082;-73
2022/05/06 06:02:13;;;;;;;124.43;33.15;;;10.00;99.90;;;;;;5053364;28;20327;-74
2022/05/06 06:04:42;;;;;;;134.70;34.28;;;10.00;99.90;;;;;;5040558;28;20064;-74
2022/05/06 06:07:07;;;;;;;178.13;36.78;;;10.00;99.90;;;;;;5023712;28;20120;-74
2022/05/06 06:09:33;;;;;;;130.63;31.23;;;10.10;99.90;;;;;;5035565;28;20439;-73
2022/05/06 06:11:59;;;;;;;106.72;30.25;;;10.00;99.90;;;;;;5037490;28;20539;-73
2022/05/06 06:14:25;;;;;;;90.75;28.00;;;10.20;99.90;;;;;;5035485;28;20041;-73
2022/05/06 06:16:50;;;;;;;90.10;28.10;;;10.20;99.90;;;;;;5043681;28;20037;-73
2022/05/06 06:19:17;;;;;;;114.90;29.57;;;10.30;99.90;;;;;;5052972;28;20033;-73
2022/05/06 06:21:44;;;;;;;115.28;31.05;;;10.30;99.90;;;;;;5054334;28;20049;-74
2022/05/06 06:24:10;;;;;;;;;;;10.40;99.90;;;;;;5054842;28;20071;-72
2022/05/06 06:26:36;;;;;;;79.18;26.67;;;10.30;99.90;;;;;;5063589;28;19923;-73
2022/05/06 06:29:04;;;;;;;82.43;28.17;;;10.40;99.90;;;;;;5038650;28;20040;-72
2022/05/06 06:31:31;;;;;;;76.95;25.95;;;10.50;99.90;;;;;;5035638;28;20063;-74
2022/05/06 06:34:01;;;;;;;60.95;26.65;;;10.60;99.90;;;;;;5052345;28;20105;-73
2022/05/06 06:36:27;;;;;;;67.22;26.08;;;10.70;99.90;;;;;;5038947;28;20040;-73
2022/05/06 06:38:53;;;;;;;59.80;25.65;;;10.90;99.90;;;;;;5052182;28;20094;-72
2022/05/06 06:41:20;;;;;;;59.33;25.65;;;11.00;99.90;;;;;;5054758;28;20094;-74
2022/05/06 06:43:47;;;;;;;58.72;24.88;;;11.10;99.90;;;;;;5058438;28;20077;-73
2022/05/06 06:46:13;;;;;;;53.38;24.08;;;11.10;99.90;;;;;;5038312;28;20476;-73
2022/05/06 06:48:40;;;;;;;57.60;26.20;;;11.20;99.90;;;;;;5051584;28;20037;-74
2022/05/06 06:51:05;;;;;;;57.10;26.38;;;11.20;99.90;;;;;;5054734;28;20429;-73
2022/05/06 06:53:31;;;;;;;51.78;25.10;;;11.30;99.90;;;;;;5051722;28;20048;-73
2022/05/06 06:55:57;;;;;;;53.17;26.38;;;11.20;99.90;;;;;;5051374;28;20041;-73
2022/05/06 06:58:23;;;;;;;53.08;25.55;;;11.20;99.90;;;;;;5051668;28;20041;-73
2022/05/06 07:00:49;;;;;;;50.20;25.30;;;11.20;99.90;;;;;;5052124;28;20421;-73
2022/05/06 07:03:15;;;;;;;52.30;25.23;;;11.30;99.90;;;;;;5051325;28;20044;-73
2022/05/06 07:13:53;;;;;;;38.40;20.65;;;11.90;99.90;;;;;;5072632;28;20044;-73
2022/05/06 07:16:19;;;;;;;45.92;23.42;;;12.00;99.90;;;;;;5054090;28;20408;-73
2022/05/06 07:18:45;;;;;;;45.05;22.98;;;12.20;99.90;;;;;;5054534;28;20047;-73
2022/05/06 07:21:11;;;;;;;47.70;23.93;;;12.20;99.90;;;;;;5046736;28;20400;-74
2022/05/06 07:23:36;;;;;;;47.40;23.27;;;12.30;99.90;;;;;;5041086;28;20279;-73
2022/05/06 07:26:02;;;;;;;38.63;21.20;;;12.40;99.90;;;;;;5058590;28;20314;-73
2022/05/06 07:28:27;;;;;;;37.20;19.67;;;12.40;99.90;;;;;;5042325;28;20040;-73
2022/05/06 07:30:53;;;;;;;41.93;20.30;;;12.50;99.90;;;;;;5048568;28;20079;-74
2022/05/06 07:33:19;;;;;;;38.15;19.13;;;12.60;99.90;;;;;;5053527;28;20071;-74
2022/05/06 07:35:44;;;;;;;36.42;18.60;;;12.70;99.90;;;;;;5036248;28;20102;-74
2022/05/06 07:38:10;;;;;;;37.42;20.25;;;12.80;99.90;;;;;;5049726;28;20028;-73
2022/05/06 07:40:36;;;;;;;32.53;17.33;;;12.70;99.90;;;;;;5050931;28;20060;-75
2022/05/06 07:43:02;;;;;;;33.85;17.08;;;12.70;99.90;;;;;;5053623;28;20340;-73
2022/05/06 07:45:28;;;;;;;33.35;17.17;;;12.80;99.90;;;;;;5050573;28;20041;-73
2022/05/06 07:47:54;;;;;;;29.50;15.80;;;12.90;99.90;;;;;;5053921;28;20550;-73
2022/05/06 07:50:20;;;;;;;30.52;15.98;;;12.90;99.90;;;;;;5035457;28;20374;-73
2022/05/06 07:52:46;;;;;;;26.33;13.90;;;13.00;99.90;;;;;;5051161;28;20051;-73
2022/05/06 07:55:15;;;;;;;26.52;14.10;;;13.10;99.90;;;;;;5053563;28;20079;-73
2022/05/06 07:57:40;;;;;;;24.58;13.82;;;13.20;99.90;;;;;;5050398;28;20086;-74
2022/05/06 08:00:07;;;;;;;22.95;13.95;;;13.20;99.90;;;;;;5053403;28;20420;-73
2022/05/06 08:05:17;;;;;;;18.98;11.73;;;13.40;99.90;;;;;;5050050;28;20045;-73
2022/05/06 08:07:44;;;;;;;20.38;12.25;;;13.70;99.90;;;;;;5034146;28;20489;-73
2022/05/06 08:10:09;;;;;;;16.33;10.27;;;13.80;99.90;;;;;;5049687;28;20047;-73
2022/05/06 08:12:35;;;;;;;17.38;10.88;;;13.90;99.90;;;;;;5050483;28;20041;-73
2022/05/06 08:15:01;;;;;;;17.83;10.18;;;14.10;99.90;;;;;;5051094;28;20045;-74
2022/05/06 08:17:27;;;;;;;17.80;11.40;;;14.30;99.90;;;;;;5053434;28;20052;-74
2022/05/06 08:19:52;;;;;;;16.65;10.38;;;14.50;99.90;;;;;;5053256;28;20051;-73
2022/05/06 08:22:18;;;;;;;16.70;9.90;;;14.90;99.90;;;;;;5052863;28;20055;-73
2022/05/06 08:24:44;;;;;;;15.50;9.35;;;15.00;99.90;;;;;;5053136;28;20047;-74
2022/05/06 08:27:11;;;;;;;13.50;8.60;;;15.20;99.90;;;;;;5049417;28;20094;-73
2022/05/06 08:29:37;;;;;;;13.38;9.25;;;15.20;99.90;;;;;;5050147;28;20498;-73
2022/05/06 08:32:03;;;;;;;15.63;9.48;;;15.20;99.90;;;;;;5070202;28;20143;-74
2022/05/06 08:34:30;;;;;;;12.73;9.23;;;15.20;99.90;;;;;;5063368;28;20057;-73
2022/05/06 08:36:56;;;;;;;14.45;9.13;;;15.30;99.90;;;;;;5053012;28;20411;-72
2022/05/06 08:39:22;;;;;;;13.45;8.98;;;15.30;99.90;;;;;;5053001;28;20055;-72
2022/05/06 08:41:49;;;;;;;13.57;9.23;;;15.40;99.90;;;;;;5052779;28;20044;-73
2022/05/06 08:52:50;;;;;;;10.32;7.65;;;16.10;99.90;;;;;;5022815;28;20412;-73
2022/05/06 08:55:18;;;;;;;9.10;7.05;;;16.40;99.90;;;;;;5052365;28;20036;-74
2022/05/06 08:57:45;;;;;;;7.82;5.85;;;16.60;99.90;;;;;;5052564;28;20043;-74
2022/05/06 09:00:12;;;;;;;9.38;7.00;;;17.10;99.90;;;;;;5047595;28;20037;-73
2022/05/06 09:02:39;;;;;;;8.30;6.72;;;17.30;99.90;;;;;;5044006;28;20450;-74
2022/05/06 09:05:15;;;;;;;8.48;6.63;;;17.60;99.90;;;;;;5065516;28;20036;-74
2022/05/06 09:07:42;;;;;;;7.57;6.38;;;18.20;99.90;;;;;;5032926;28;20108;-73
2022/05/06 09:10:15;;;;;;;8.93;5.57;;;18.60;99.90;;;;;;5036958;28;20090;-74
2022/05/06 09:12:46;;;;;;;7.65;5.75;;;18.60;99.90;;;;;;5032796;28;20037;-74
2022/05/06 09:18:02;;;;;;;6.28;5.20;;;19.30;99.90;;;;;;5052698;28;20044;-73
2022/05/06 09:20:28;;;;;;;5.75;4.88;;;19.50;99.90;;;;;;5052241;28;20530;-73
2022/05/06 09:22:54;;;;;;;;;;;19.80;99.90;;;;;;5052553;28;20461;-74
2022/05/06 09:25:42;;;;;;;4.85;4.30;;;19.70;99.90;;;;;;5049017;28;19916;-73
2022/05/06 09:28:30;;;;;;;6.45;4.65;;;19.70;99.90;;;;;;5032102;28;20473;-73
2022/05/06 09:31:06;;;;;;;5.63;4.97;;;20.50;99.90;;;;;;5047193;28;20083;-72
2022/05/06 09:33:35;;;;;;;6.00;5.00;;;21.00;99.90;;;;;;5029094;28;20045;-73
2022/05/06 09:36:24;;;;;;;5.47;4.15;;;21.00;99.90;;;;;;5048403;28;20458;-73
2022/05/06 09:39:07;;;;;;;4.75;3.95;;;21.50;99.90;;;;;;5048760;28;20041;-73
2022/05/06 09:41:38;;;;;;;4.72;3.90;;;22.00;99.90;;;;;;5039983;28;20045;-73
2022/05/06 09:44:08;;;;;;;5.32;4.40;;;22.10;99.90;;;;;;5045656;28;20040;-72
2022/05/06 09:46:35;;;;;;;5.22;3.80;;;22.30;99.90;;;;;;5035214;28;20049;-73
2022/05/06 09:49:03;;;;;;;5.60;4.53;;;22.20;99.90;;;;;;5028351;28;20041;-73
2022/05/06 09:51:33;;;;;;;5.60;3.92;;;22.40;99.90;;;;;;5029153;28;20482;-73
2022/05/06 09:53:59;;;;;;;6.10;4.00;;;22.00;99.90;;;;;;5033705;28;20044;-74
2022/05/06 09:56:27;;;;;;;5.13;4.10;;;22.10;99.90;;;;;;5035920;28;20037;-73
2022/05/06 09:58:54;;;;;;;4.63;4.13;;;22.20;99.90;;;;;;5045493;28;20036;-73
2022/05/06 10:01:21;;;;;;;6.00;4.43;;;21.90;99.90;;;;;;5046447;28;20045;-75
2022/05/06 10:03:47;;;;;;;4.78;4.28;;;21.90;99.90;;;;;;5052711;28;20079;-74
2022/05/06 10:06:13;;;;;;;;;;;22.00;99.90;;;;;;5042687;28;20068;-74
2022/05/06 10:08:48;;;;;;;5.03;4.53;;;22.30;99.90;;;;;;5049208;28;19987;-73
2022/05/06 10:11:17;;;;;;;5.88;4.60;;;22.40;99.90;;;;;;5042070;28;20098;-73
2022/05/06 10:13:46;;;;;;;6.43;4.78;;;22.40;99.90;;;;;;5052383;28;20073;-74
2022/05/06 10:16:12;;;;;;;6.25;4.22;;;22.50;99.90;;;;;;5051982;28;20040;-73
2022/05/06 10:18:42;;;;;;;;;;;22.40;99.90;;;;;;5050145;28;20041;-74
2022/05/06 10:21:12;;;;;;;5.90;4.50;;;22.70;99.90;;;;;;5052302;28;19917;-74
2022/05/06 10:23:55;;;;;;;4.82;4.32;;;22.60;99.90;;;;;;5049900;28;20049;-73
2022/05/06 10:26:45;;;;;;;4.78;4.32;;;23.10;99.90;;;;;;5035131;28;20045;-72
2022/05/06 10:32:27;;;;;;;5.78;4.07;;;23.20;99.90;;;;;;5046164;28;20492;-73
2022/05/06 10:35:02;;;;;;;4.70;4.10;;;23.20;99.90;;;;;;5036836;28;20060;-74
2022/05/06 10:37:41;;;;;;;5.15;3.75;;;23.50;99.90;;;;;;5020037;28;20044;-73
2022/05/06 10:40:26;;;;;;;5.25;3.70;;;23.60;99.70;;;;;;5051932;28;20037;-74
2022/05/06 10:42:52;;;;;;;4.38;3.92;;;23.50;99.30;;;;;;5052996;28;20051;-73
2022/05/06 10:45:27;;;;;;;4.13;3.50;;;23.40;99.90;;;;;;5051479;28;20044;-74
2022/05/06 10:47:53;;;;;;;5.88;3.53;;;23.70;99.50;;;;;;5032100;28;20056;-73
2022/05/06 10:50:22;;;;;;;4.18;3.63;;;23.30;99.40;;;;;;5049543;28;20098;-73
2022/05/06 10:52:48;;;;;;;4.15;3.65;;;23.60;99.90;;;;;;5035086;28;20057;-73
2022/05/06 10:55:16;;;;;;;3.05;2.35;;;23.50;99.00;;;;;;5051291;28;20055;-73
2022/05/06 10:57:48;;;;;;;1.95;1.38;;;23.80;98.00;;;;;;5051803;28;20041;-74
2022/05/06 11:00:14;;;;;;;5.00;2.08;;;24.00;97.20;;;;;;5051208;28;20039;-72
2022/05/06 11:02:40;;;;;;;4.30;2.40;;;23.60;97.10;;;;;;5052975;28;20202;-74
2022/05/06 11:05:14;;;;;;;2.20;1.80;;;23.40;97.30;;;;;;5032842;28;20037;-74
2022/05/06 11:07:42;;;;;;;2.10;1.20;;;23.70;97.30;;;;;;5039021;28;20041;-72
2022/05/06 11:10:09;;;;;;;2.00;1.00;;;24.20;97.10;;;;;;5031262;28;20052;-74
2022/05/06 11:12:43;;;;;;;2.00;1.20;;;24.20;95.40;;;;;;5034727;28;20049;-72
2022/05/06 11:15:15;;;;;;;2.70;1.52;;;24.30;94.70;;;;;;5049855;28;20488;-73
2022/05/06 11:17:42;;;;;;;1.70;1.30;;;24.60;95.90;;;;;;5051452;28;20047;-73
2022/05/06 11:20:23;;;;;;;1.80;1.40;;;24.90;95.40;;;;;;5051023;28;20060;-73
2022/05/06 11:22:55;;;;;;;2.42;1.67;;;25.00;95.40;;;;;;5036234;28;20045;-74
2022/05/06 11:25:22;;;;;;;1.60;1.30;;;25.10;95.40;;;;;;5030848;28;20412;-73
2022/05/06 11:27:52;;;;;;;2.47;1.38;;;25.40;95.60;;;;;;5042859;28;20044;-73
2022/05/06 11:30:20;;;;;;;2.47;1.55;;;25.60;95.00;;;;;;5047580;28;20536;-73
2022/05/06 11:32:55;;;;;;;1.90;1.63;;;25.60;94.40;;;;;;5039888;28;20156;-73
2022/05/06 11:35:45;;;;;;;2.42;1.75;;;25.60;95.00;;;;;;5049401;28;20124;-72
2022/05/06 11:38:12;;;;;;;1.90;1.60;;;25.50;94.40;;;;;;5033644;28;20045;-73
2022/05/06 11:40:39;;;;;;;2.60;1.60;;;25.30;94.30;;;;;;5033272;28;20045;-73
2022/05/06 11:43:19;;;;;;;2.85;1.90;;;25.60;94.40;;;;;;5017412;28;20045;-73
2022/05/06 11:48:44;;;;;;;3.28;1.90;;;25.90;94.40;;;;;;5050276;28;20377;-73
2022/05/06 11:51:12;;;;;;;2.08;1.33;;;26.20;94.60;;;;;;5050660;28;20405;-72
2022/05/06 11:53:40;;;;;;;2.08;1.50;;;26.30;94.00;;;;;;5050253;28;20056;-73
2022/05/06 11:56:06;;;;;;;2.80;1.73;;;26.00;93.60;;;;;;5051458;28;20048;-73
2022/05/06 11:58:36;;;;;;;3.33;1.67;;;26.10;94.40;;;;;;5053771;28;20040;-72
2022/05/06 12:01:01;;;;;;;2.05;1.42;;;25.70;93.50;;;;;;5053770;28;20481;-73
2022/05/06 12:03:28;;;;;;;3.50;1.40;;;26.00;93.40;;;;;;5053356;28;20052;-72
2022/05/06 12:06:09;;;;;;;3.58;1.90;;;26.20;93.90;;;;;;5050118;28;20044;-73
2022/05/06 12:08:36;;;;;;;2.90;1.73;;;26.50;93.80;;;;;;5053375;28;20028;-73
2022/05/06 12:11:07;;;;;;;2.28;1.45;;;26.70;93.50;;;;;;5053370;28;20060;-72
2022/05/06 12:13:43;;;;;;;2.45;1.60;;;26.30;93.40;;;;;;5053248;28;20186;-72
2022/05/06 12:16:11;;;;;;;1.75;1.08;;;25.70;93.40;;;;;;5053237;28;20123;-72
2022/05/06 12:18:38;;;;;;;2.88;0.70;;;25.40;93.80;;;;;;5053122;28;20242;-72
2022/05/06 12:21:21;;;;;;;2.88;0.70;;;25.50;93.50;;;;;;5063672;28;20033;-72
2022/05/06 12:23:55;;;;;;;2.53;0.80;;;26.00;93.30;;;;;;5053124;28;20040;-72
2022/05/06 12:26:37;;;;;;;1.27;1.02;;;26.30;93.30;;;;;;5053278;28;20059;-72
2022/05/06 12:29:16;;;;;;;1.50;0.80;;;26.80;93.40;;;;;;5052942;28;20036;-73
2022/05/06 12:31:42;;;;;;;1.00;0.70;;;27.10;92.90;;;;;;5052747;28;20041;-73
2022/05/06 12:34:07;;;;;;;1.60;0.70;;;26.80;92.60;;;;;;5032806;28;20098;-72
2022/05/06 12:36:35;;;;;;;2.00;0.80;;;26.60;92.10;;;;;;5032872;28;20055;-72
2022/05/06 12:39:00;;;;;;;2.70;0.98;;;26.50;91.50;;;;;;5047276;28;20037;-73
2022/05/06 12:41:27;;;;;;;4.15;1.50;;;26.50;92.70;;;;;;5044248;28;20052;-73
2022/05/06 12:43:58;;;;;;;2.22;1.40;;;26.40;93.20;;;;;;5049680;28;20038;-73
2022/05/06 12:46:33;;;;;;;2.47;1.25;;;26.10;93.10;;;;;;5046697;28;20059;-73
2022/05/06 12:51:45;;;;;;;2.85;1.45;;;26.10;92.70;;;;;;5044880;28;20300;-73
2022/05/06 12:54:12;;;;;;;1.85;1.30;;;26.40;93.70;;;;;;5049802;28;20485;-73
2022/05/06 12:56:40;;;;;;;3.42;1.33;;;26.50;92.40;;;;;;5045686;28;20040;-72
2022/05/06 12:59:07;;;;;;;1.98;1.60;;;26.30;93.00;;;;;;5043913;28;20078;-73
2022/05/06 13:01:34;;;;;;;2.17;1.40;;;25.40;93.00;;;;;;5046094;28;20045;-73
2022/05/06 13:04:00;;;;;;;2.28;1.52;;;25.40;93.90;;;;;;5042909;28;20041;-72
2022/05/06 13:06:26;;;;;;;2.90;1.80;;;25.50;93.70;;;;;;5048441;28;20044;-73
2022/05/06 13:08:52;;;;;;;4.63;2.05;;;25.60;94.00;;;;;;5044106;28;20041;-72
2022/05/06 13:11:18;;;;;;;3.08;1.95;;;25.40;94.30;;;;;;5029741;28;20049;-72
2022/05/06 13:13:44;;;;;;;3.80;2.40;;;25.50;93.90;;;;;;5031598;28;20045;-73
2022/05/06 13:16:11;;;;;;;3.13;2.13;;;25.80;93.90;;;;;;5029336;28;20448;-72
2022/05/06 13:18:37;;;;;;;3.00;2.00;;;26.20;94.20;;;;;;5029140;28;20036;-73
2022/05/06 13:21:04;;;;;;;3.97;1.60;;;26.30;93.60;;;;;;5028700;28;20041;-73
2022/05/06 13:23:30;;;;;;;3.22;2.03;;;26.30;92.80;;;;;;5044526;28;20045;-72
2022/05/06 13:25:55;;;;;;;3.50;1.92;;;26.30;92.70;;;;;;5048731;28;20045;-73
2022/05/06 13:28:21;;;;;;;4.05;2.30;;;26.40;92.90;;;;;;5048975;28;20511;-73